Time;durP1;ratioP1;P1;durP2;ratioP2;P2;SDS_P1;SDS_P2;PMS_P1;PMS_P2;Temp;Humidity;BMP_temperature;BMP_pressure;BME280_temperature;BME280_humidity;BME280_pressure;Samples;Min_cycle;Max_cycle;Signal;HPM_P1;HPM_P2
2023/03/23 00:01:20;;;;;;;6.63;3.63;;;;;;;11.04;100.00;100179.22;4991322;28;20089;-84
2023/03/23 00:03:48;;;;;;;7.25;3.53;;;;;;;11.02;100.00;100193.47;5006979;28;20097;-85
2023/03/23 00:06:17;;;;;;;6.50;3.40;;;;;;;11.03;100.00;100177.53;4990320;28;20443;-85
2023/03/23 00:08:46;;;;;;;7.60;3.38;;;;;;;11.03;100.00;100163.53;4993022;28;20069;-85
2023/03/23 00:11:20;;;;;;;7.78;3.47;;;;;;;11.02;100.00;100154.81;4988459;28;20042;-85
2023/03/23 00:13:51;;;;;;;6.80;3.22;;;;;;;11.05;100.00;100174.78;4981943;28;20371;-84
2023/03/23 00:16:18;;;;;;;5.68;3.17;;;;;;;11.06;100.00;100179.91;5011700;28;20034;-84
2023/03/23 00:18:52;;;;;;;5.82;3.72;;;;;;;11.08;100.00;100191.13;4984456;28;20072;-84
2023/03/23 00:21:19;;;;;;;4.43;3.38;;;;;;;11.09;100.00;100169.09;5022294;28;20494;-84
2023/03/23 00:23:44;;;;;;;5.20;3.35;;;;;;;11.10;100.00;100162.03;4989731;28;20037;-84
2023/03/23 00:26:11;;;;;;;6.90;3.50;;;;;;;11.11;100.00;100172.44;4988819;28;20084;-85
2023/03/23 00:28:38;;;;;;;7.72;3.45;;;;;;;11.10;100.00;100177.84;4984393;28;20313;-85
2023/03/23 00:31:07;;;;;;;5.13;3.47;;;;;;;11.11;100.00;100196.13;4966544;28;20391;-85
2023/03/23 00:33:37;;;;;;;5.57;3.40;;;;;;;11.13;100.00;100178.41;5003238;28;20093;-79
2023/03/23 00:36:24;;;;;;;6.50;3.70;;;;;;;11.15;100.00;100189.63;4979090;28;20506;-84
2023/03/23 00:38:50;;;;;;;4.13;3.60;;;;;;;11.15;100.00;100178.25;4993181;28;20387;-85
2023/03/23 00:41:15;;;;;;;5.22;3.47;;;;;;;11.14;100.00;100184.50;4989169;28;20034;-84
2023/03/23 00:43:40;;;;;;;4.85;3.38;;;;;;;11.17;100.00;100179.78;4992813;28;20334;-85
2023/03/23 00:46:09;;;;;;;6.25;3.50;;;;;;;11.17;100.00;100173.69;5005099;28;20092;-83
2023/03/23 00:48:40;;;;;;;4.47;3.30;;;;;;;11.19;100.00;100162.06;4972823;28;20034;-83
2023/03/23 00:51:11;;;;;;;6.20;3.42;;;;;;;11.17;100.00;100158.72;4971517;28;20058;-82
2023/03/23 00:53:40;;;;;;;6.70;4.10;;;;;;;11.17;100.00;100171.91;4974167;28;20018;-83
2023/03/23 00:56:07;;;;;;;4.78;3.42;;;;;;;11.16;100.00;100164.97;5009976;28;20030;-83
2023/03/23 00:58:37;;;;;;;4.72;3.70;;;;;;;11.14;100.00;100164.28;4986964;28;20383;-84
2023/03/23 01:01:06;;;;;;;5.13;3.80;;;;;;;11.09;100.00;100152.47;5022913;28;20451;-84
2023/03/23 01:03:33;;;;;;;5.70;4.07;;;;;;;11.07;100.00;100128.91;4985567;28;20080;-84
2023/03/23 01:06:05;;;;;;;5.35;3.80;;;;;;;11.03;100.00;100130.16;4969221;28;20480;-83
2023/03/23 01:08:31;;;;;;;7.20;4.30;;;;;;;11.01;100.00;100128.63;4983869;28;20058;-84
2023/03/23 01:11:06;;;;;;;5.32;3.78;;;;;;;11.01;100.00;100140.00;4992327;28;20100;-83
2023/03/23 01:13:32;;;;;;;4.72;4.00;;;;;;;11.02;100.00;100120.59;4987796;28;20495;-84
2023/03/23 01:15:57;;;;;;;6.18;4.00;;;;;;;11.01;100.00;100103.13;4992616;28;20030;-83
2023/03/23 01:18:23;;;;;;;6.18;3.80;;;;;;;11.01;100.00;100111.03;4990932;28;20034;-84
2023/03/23 01:20:48;;;;;;;4.78;3.83;;;;;;;11.06;100.00;100103.56;4982063;28;20019;-84
2023/03/23 01:23:14;;;;;;;4.90;3.72;;;;;;;11.07;100.00;100110.50;4969295;28;20031;-84
2023/03/23 01:25:40;;;;;;;7.07;4.10;;;;;;;11.09;100.00;100108.56;4972303;28;20030;-84
2023/03/23 01:28:06;;;;;;;6.75;4.00;;;;;;;11.10;100.00;100115.47;5006285;28;20049;-84
2023/03/23 01:30:31;;;;;;;5.50;4.05;;;;;;;11.11;100.00;100114.50;4990150;28;20031;-80
2023/03/23 01:32:57;;;;;;;5.75;4.03;;;;;;;11.10;100.00;100102.31;4992713;28;20364;-83
2023/03/23 01:35:22;;;;;;;4.35;3.95;;;;;;;11.11;100.00;100100.53;4992360;28;20030;-84
2023/03/23 01:37:48;;;;;;;8.57;4.30;;;;;;;11.10;100.00;100107.59;4988081;28;20018;-79
2023/03/23 01:40:16;;;;;;;5.03;4.07;;;;;;;11.15;100.00;100112.44;4959453;28;20031;-83
2023/03/23 01:42:42;;;;;;;4.15;3.67;;;;;;;11.16;100.00;100108.84;4979503;28;20038;-84
2023/03/23 01:45:20;;;;;;;6.65;4.00;;;;;;;11.17;100.00;100116.59;4983349;28;20030;-84
2023/03/23 01:48:00;;;;;;;5.22;4.10;;;;;;;11.18;100.00;100107.75;4991615;28;20037;-84
2023/03/23 01:50:28;;;;;;;5.75;3.70;;;;;;;11.19;100.00;100114.66;4990700;28;20365;-84
2023/03/23 01:52:56;;;;;;;4.57;3.88;;;;;;;11.18;100.00;100115.63;4992932;28;20010;-84
2023/03/23 01:55:24;;;;;;;5.13;3.72;;;;;;;11.19;100.00;100104.13;4986936;28;20026;-84
2023/03/23 01:57:49;;;;;;;4.43;3.88;;;;;;;11.23;100.00;100097.66;4969277;28;20022;-84
2023/03/23 02:00:15;;;;;;;5.68;3.80;;;;;;;11.25;100.00;100093.09;4986632;28;20037;-84
2023/03/23 02:02:48;;;;;;;5.20;3.80;;;;;;;11.27;100.00;100091.16;5003980;28;20026;-80
2023/03/23 02:05:19;;;;;;;5.35;3.67;;;;;;;11.25;100.00;100081.72;4988488;28;20061;-85
2023/03/23 02:07:46;;;;;;;4.05;3.55;;;;;;;11.29;100.00;100072.56;4993170;28;20030;-80
2023/03/23 02:10:11;;;;;;;6.45;4.28;;;;;;;11.33;100.00;100079.22;4985493;28;20283;-80
2023/03/23 02:12:37;;;;;;;5.78;3.90;;;;;;;11.33;100.00;100075.75;4989810;28;20066;-84
2023/03/23 02:15:04;;;;;;;6.80;4.07;;;;;;;11.33;100.00;100068.69;4977477;28;20042;-85
2023/03/23 02:17:55;;;;;;;4.75;3.70;;;;;;;11.37;100.00;100074.53;4986953;28;20026;-84
2023/03/23 02:20:33;;;;;;;5.85;4.18;;;;;;;11.37;100.00;100070.09;4990442;28;20030;-84
2023/03/23 02:23:11;;;;;;;5.97;3.88;;;;;;;11.40;100.00;100068.97;4978097;28;20022;-85
2023/03/23 02:26:06;;;;;;;5.47;3.70;;;;;;;11.40;100.00;100068.97;4985667;28;20652;-85
2023/03/23 02:28:48;;;;;;;5.05;3.20;;;;;;;11.42;100.00;100078.41;4987978;28;20022;-85
2023/03/23 02:31:21;;;;;;;5.68;3.58;;;;;;;11.44;100.00;100075.63;4988268;28;20116;-85
2023/03/23 02:33:52;;;;;;;;;;;;;;;11.51;100.00;100068.84;4951465;28;20074;-85
2023/03/23 02:36:37;;;;;;;6.35;3.78;;;;;;;11.47;100.00;100063.00;4953193;29;20004;-84
2023/03/23 02:39:13;;;;;;;4.43;3.35;;;;;;;11.48;100.00;100061.22;4974322;28;20054;-84
2023/03/23 02:42:06;;;;;;;5.30;3.95;;;;;;;11.51;100.00;100058.28;4987193;28;20126;-84
2023/03/23 02:44:35;;;;;;;6.07;3.65;;;;;;;11.56;100.00;100058.72;4985299;28;20617;-84
2023/03/23 02:47:04;;;;;;;5.10;3.50;;;;;;;11.58;100.00;100062.03;4987021;28;20117;-84
2023/03/23 02:49:32;;;;;;;4.97;3.35;;;;;;;11.55;100.00;100057.88;4963437;28;20502;-83
2023/03/23 02:52:01;;;;;;;4.25;3.15;;;;;;;11.58;100.00;100062.03;4970526;28;20424;-84
2023/03/23 02:54:28;;;;;;;3.90;3.20;;;;;;;11.64;100.00;100071.22;4986382;28;20673;-84
2023/03/23 02:56:55;;;;;;;6.03;3.33;;;;;;;11.63;100.00;100065.09;4973613;28;20100;-82
2023/03/23 02:59:21;;;;;;;5.18;3.60;;;;;;;11.67;100.00;100069.13;5019414;28;20424;-84
2023/03/23 03:01:52;;;;;;;3.90;3.20;;;;;;;11.69;100.00;100069.81;5023837;28;20062;-83
2023/03/23 03:04:21;;;;;;;5.97;3.72;;;;;;;11.68;100.00;100057.63;4988608;28;20034;-84
2023/03/23 03:07:24;;;;;;;5.00;3.45;;;;;;;11.72;100.00;100063.44;5022236;28;20042;-83
2023/03/23 03:10:01;;;;;;;5.43;3.60;;;;;;;11.71;100.00;100067.88;4989932;28;20448;-84
2023/03/23 03:12:45;;;;;;;4.65;3.50;;;;;;;11.74;100.00;100067.59;4975342;28;20031;-84
2023/03/23 03:15:22;;;;;;;5.10;3.47;;;;;;;11.72;100.00;100072.16;4988827;28;20030;-78
2023/03/23 03:18:12;;;;;;;4.78;3.53;;;;;;;11.77;100.00;100066.47;4985051;28;20038;-84
2023/03/23 03:20:45;;;;;;;7.13;3.60;;;;;;;11.74;100.00;100054.41;4985025;28;20388;-84
2023/03/23 03:23:13;;;;;;;5.90;3.50;;;;;;;11.73;100.00;100065.94;4984813;28;20034;-84
2023/03/23 03:25:42;;;;;;;4.57;3.50;;;;;;;11.72;100.00;100072.16;4986545;28;20035;-84
2023/03/23 03:28:08;;;;;;;5.25;3.63;;;;;;;11.71;100.00;100067.88;4972137;28;20110;-84
2023/03/23 03:30:36;;;;;;;4.18;3.45;;;;;;;11.71;100.00;100062.59;4973496;28;20384;-84
2023/03/23 03:33:04;;;;;;;5.65;3.60;;;;;;;11.71;100.00;100062.59;4990251;28;20104;-85
2023/03/23 03:35:31;;;;;;;4.85;3.40;;;;;;;11.74;99.93;100064.97;4988348;28;20105;-84
2023/03/23 03:37:57;;;;;;;4.35;3.13;;;;;;;11.72;100.00;100063.44;5005211;28;20022;-84
2023/03/23 03:40:23;;;;;;;4.57;3.40;;;;;;;11.70;100.00;100066.22;4985521;28;20030;-78
2023/03/23 03:42:49;;;;;;;6.10;3.45;;;;;;;11.70;100.00;100066.22;4989894;28;20037;-78
2023/03/23 03:45:18;;;;;;;4.90;3.17;;;;;;;11.71;99.59;100072.31;4971319;28;20388;-85
2023/03/23 03:47:44;;;;;;;5.65;3.50;;;;;;;11.72;98.91;100069.53;5010977;28;20122;-84
2023/03/23 03:50:10;;;;;;;3.97;2.70;;;;;;;11.72;98.99;100068.72;4986238;28;20030;-84
2023/03/23 03:52:38;;;;;;;5.15;3.50;;;;;;;11.73;99.21;100065.09;4989964;28;20498;-84
2023/03/23 03:55:04;;;;;;;5.55;2.95;;;;;;;11.71;98.92;100073.16;4989940;28;20029;-83
2023/03/23 03:57:30;;;;;;;7.97;3.35;;;;;;;11.69;98.42;100064.53;4989614;28;20115;-84
2023/03/23 03:59:55;;;;;;;8.02;3.05;;;;;;;11.68;98.57;100081.31;4988005;28;20117;-84
2023/03/23 04:02:24;;;;;;;7.47;3.00;;;;;;;11.67;98.26;100086.75;4980253;28;20030;-84
2023/03/23 04:04:52;;;;;;;7.63;3.00;;;;;;;11.66;97.81;100078.00;4990451;28;20033;-83
2023/03/23 04:07:18;;;;;;;5.10;2.70;;;;;;;11.64;98.00;100077.31;4976461;28;20157;-83
2023/03/23 04:09:46;;;;;;;12.57;2.83;;;;;;;11.67;96.85;100079.66;4986427;28;20051;-83
2023/03/23 04:12:12;;;;;;;6.25;2.50;;;;;;;11.66;97.01;100077.16;4987800;28;20031;-83
2023/03/23 04:14:38;;;;;;;7.50;3.03;;;;;;;11.67;96.26;100078.84;4987007;28;20030;-83
2023/03/23 04:17:04;;;;;;;5.75;2.30;;;;;;;11.69;96.04;100090.91;4988460;28;20035;-83
2023/03/23 04:19:32;;;;;;;7.68;2.97;;;;;;;11.66;96.61;100096.44;4978522;28;20182;-83
2023/03/23 04:21:58;;;;;;;8.82;2.70;;;;;;;11.66;96.11;100085.91;4969151;28;20015;-83
2023/03/23 04:24:24;;;;;;;8.07;2.60;;;;;;;11.67;95.56;100097.28;4974508;28;20053;-83
2023/03/23 04:26:54;;;;;;;8.38;2.40;;;;;;;11.65;95.89;100089.50;4990945;28;20026;-84
2023/03/23 04:29:19;;;;;;;12.95;2.67;;;;;;;11.61;96.34;100091.59;4991411;28;20037;-83
2023/03/23 04:31:45;;;;;;;7.05;2.47;;;;;;;11.64;95.25;100097.56;4989264;28;20027;-83
2023/03/23 04:34:14;;;;;;;7.10;2.67;;;;;;;11.67;94.73;100098.13;4989561;28;20467;-84
2023/03/23 04:36:40;;;;;;;9.10;2.80;;;;;;;11.67;94.95;100103.38;4971194;28;20035;-84
2023/03/23 04:39:09;;;;;;;6.57;2.33;;;;;;;11.65;95.53;100107.97;4953063;28;20023;-84
2023/03/23 04:41:35;;;;;;;5.97;2.08;;;;;;;11.64;95.49;100106.28;4973769;28;20361;-84
2023/03/23 04:44:04;;;;;;;8.23;2.15;;;;;;;11.67;94.10;100110.47;4989647;28;20057;-83
2023/03/23 04:46:30;;;;;;;7.07;2.65;;;;;;;11.67;94.29;100107.81;4992166;28;20030;-84
2023/03/23 04:48:55;;;;;;;9.68;2.55;;;;;;;11.65;94.73;100107.13;4986748;28;20102;-84
2023/03/23 04:51:20;;;;;;;5.80;1.90;;;;;;;11.66;94.48;100112.25;4983816;28;20088;-83
2023/03/23 04:53:46;;;;;;;5.97;1.85;;;;;;;11.64;94.55;100103.66;4965700;28;20042;-83
2023/03/23 04:56:13;;;;;;;8.50;2.58;;;;;;;11.65;94.61;100115.88;4973673;28;20498;-82
2023/03/23 04:58:39;;;;;;;8.60;2.13;;;;;;;11.65;94.36;100120.31;4974305;28;20061;-83
2023/03/23 05:01:05;;;;;;;7.10;2.00;;;;;;;11.62;95.70;100110.88;4972527;28;20106;-84
2023/03/23 05:03:30;;;;;;;7.43;2.03;;;;;;;11.58;95.56;100107.66;4978492;28;20026;-85
2023/03/23 05:05:56;;;;;;;8.35;2.22;;;;;;;11.55;95.71;100110.56;4990597;28;20081;-84
2023/03/23 05:08:24;;;;;;;9.82;2.42;;;;;;;11.53;95.88;100117.78;4991640;28;20042;-84
2023/03/23 05:10:58;;;;;;;6.95;2.30;;;;;;;11.53;95.95;100109.03;4973107;28;20046;-84
2023/03/23 05:13:25;;;;;;;7.38;2.42;;;;;;;11.51;95.63;100117.09;4972760;28;20078;-78
2023/03/23 05:15:50;;;;;;;6.75;2.03;;;;;;;11.53;95.73;100109.03;4978265;28;20550;-83
2023/03/23 05:18:16;;;;;;;7.60;2.50;;;;;;;11.52;95.14;100102.09;4988463;28;20030;-83
2023/03/23 05:20:41;;;;;;;8.45;2.13;;;;;;;11.53;95.16;100107.25;4988274;28;20513;-85
2023/03/23 05:23:08;;;;;;;9.50;2.10;;;;;;;11.50;94.97;100106.69;4985284;28;20030;-84
2023/03/23 05:25:36;;;;;;;10.68;2.40;;;;;;;11.52;94.87;100115.28;4990927;28;20395;-84
2023/03/23 05:28:02;;;;;;;10.05;3.13;;;;;;;11.51;95.04;100111.81;4971924;28;20026;-83
2023/03/23 05:30:27;;;;;;;9.38;3.50;;;;;;;11.50;95.00;100122.50;4988990;28;20034;-84
2023/03/23 05:32:53;;;;;;;8.80;2.80;;;;;;;11.49;95.67;100131.38;4991838;28;20030;-83
2023/03/23 05:35:19;;;;;;;7.10;2.65;;;;;;;11.45;95.99;100116.81;4990543;28;20108;-84
2023/03/23 05:37:45;;;;;;;7.60;2.17;;;;;;;11.43;96.52;100122.22;4987175;28;20038;-84
2023/03/23 05:40:12;;;;;;;7.80;2.40;;;;;;;11.41;96.69;100118.03;4987836;28;20080;-84
2023/03/23 05:42:39;;;;;;;6.32;2.13;;;;;;;11.36;96.95;100115.81;5002023;28;20096;-84
2023/03/23 05:45:06;;;;;;;8.40;2.20;;;;;;;11.33;97.67;100115.28;4986358;28;20433;-84
2023/03/23 05:47:31;;;;;;;11.45;2.80;;;;;;;11.28;98.01;100116.50;4973701;28;20490;-84
2023/03/23 05:49:57;;;;;;;7.28;2.55;;;;;;;11.25;98.08;100124.69;4974753;28;20031;-84
2023/03/23 05:52:26;;;;;;;9.32;2.70;;;;;;;11.28;98.58;100124.41;4971730;28;20030;-84
2023/03/23 05:54:52;;;;;;;8.65;2.63;;;;;;;11.24;98.53;100117.75;4986580;28;20035;-83
2023/03/23 05:57:18;;;;;;;8.38;2.60;;;;;;;11.25;98.11;100119.41;4990547;28;20053;-83
2023/03/23 05:59:44;;;;;;;7.57;2.60;;;;;;;11.23;98.13;100120.53;5005746;28;20026;-84
2023/03/23 06:02:10;;;;;;;11.20;2.50;;;;;;;11.23;98.05;100129.25;4980947;28;20033;-84
2023/03/23 06:04:37;;;;;;;12.10;3.00;;;;;;;11.23;97.67;100121.34;4991362;28;20491;-83
2023/03/23 06:07:03;;;;;;;7.43;2.50;;;;;;;11.23;97.90;100116.09;4991620;28;20378;-82
2023/03/23 06:09:29;;;;;;;9.93;2.80;;;;;;;11.27;97.46;100128.00;4991717;28;20046;-83
2023/03/23 06:11:55;;;;;;;10.60;2.50;;;;;;;11.32;96.73;100116.25;4991196;28;20118;-82
2023/03/23 06:14:21;;;;;;;9.20;2.80;;;;;;;11.34;96.25;100138.00;4990759;28;20487;-83
2023/03/23 06:16:47;;;;;;;13.35;3.28;;;;;;;11.36;96.45;100136.06;5022988;28;20034;-83
2023/03/23 06:19:14;;;;;;;11.35;2.80;;;;;;;11.37;95.95;100158.81;4980767;28;20044;-82
2023/03/23 06:21:40;;;;;;;9.32;2.45;;;;;;;11.39;95.99;100154.22;4976108;28;20019;-83
2023/03/23 06:24:05;;;;;;;10.85;2.67;;;;;;;11.41;95.81;100160.19;5010642;28;20424;-83
2023/03/23 06:26:37;;;;;;;9.07;2.63;;;;;;;11.42;95.48;100167.97;4977019;28;20466;-83
2023/03/23 06:29:10;;;;;;;11.60;2.60;;;;;;;11.44;94.62;100166.03;4985889;28;20026;-83
2023/03/23 06:31:39;;;;;;;12.13;2.72;;;;;;;11.44;94.66;100171.28;4990856;28;20041;-82
2023/03/23 06:34:05;;;;;;;8.95;2.17;;;;;;;11.44;94.71;100165.19;4989884;28;20037;-78
2023/03/23 06:36:32;;;;;;;7.25;2.60;;;;;;;11.46;94.33;100189.59;4962257;28;20492;-83
2023/03/23 06:38:57;;;;;;;9.27;2.50;;;;;;;11.46;94.51;100179.06;4983670;28;20030;-83
2023/03/23 06:41:22;;;;;;;8.07;2.80;;;;;;;11.50;93.67;100177.81;4989868;28;20034;-84
2023/03/23 06:43:48;;;;;;;10.70;2.88;;;;;;;11.50;93.80;100189.19;4990551;28;20499;-83
2023/03/23 06:46:14;;;;;;;6.95;2.05;;;;;;;11.49;94.00;100189.31;4986797;28;20482;-82
2023/03/23 06:48:39;;;;;;;9.88;2.33;;;;;;;11.47;94.13;100191.25;4971746;28;20034;-82
2023/03/23 06:51:05;;;;;;;7.55;2.33;;;;;;;11.48;94.37;100198.19;5012610;28;20049;-83
2023/03/23 06:53:30;;;;;;;9.68;2.50;;;;;;;11.50;93.70;100205.00;4996584;28;20517;-83
2023/03/23 06:55:56;;;;;;;11.50;2.42;;;;;;;11.50;93.85;100207.63;5001146;28;20029;-83
2023/03/23 06:58:23;;;;;;;10.43;2.22;;;;;;;11.48;94.24;100219.25;4969822;28;20030;-83
2023/03/23 07:00:56;;;;;;;8.80;2.30;;;;;;;11.44;95.75;100212.59;4967373;28;20373;-83
2023/03/23 07:03:22;;;;;;;9.18;2.60;;;;;;;11.41;96.29;100212.88;4968721;28;20105;-83
2023/03/23 07:05:47;;;;;;;12.20;3.08;;;;;;;11.35;97.83;100205.50;4966437;28;20579;-85
2023/03/23 07:08:13;;;;;;;8.07;2.42;;;;;;;11.25;99.69;100214.22;5000911;28;20035;-83
2023/03/23 07:10:39;;;;;;;10.30;2.92;;;;;;;11.13;100.00;100217.91;4983147;28;20026;-83
2023/03/23 07:13:04;;;;;;;8.27;2.78;;;;;;;11.02;100.00;100223.25;5005632;28;20066;-84
2023/03/23 07:15:30;;;;;;;8.20;2.60;;;;;;;10.91;100.00;100231.25;4977417;28;20022;-82
2023/03/23 07:17:56;;;;;;;10.38;2.83;;;;;;;10.82;100.00;100240.75;4986457;28;20073;-83
2023/03/23 07:20:21;;;;;;;11.70;3.10;;;;;;;10.77;100.00;100242.09;4989102;28;20450;-83
2023/03/23 07:22:47;;;;;;;11.43;2.97;;;;;;;10.68;100.00;100251.59;4989722;28;20041;-83
2023/03/23 07:25:13;;;;;;;7.47;2.45;;;;;;;10.58;100.00;100251.53;4974356;28;20445;-81
2023/03/23 07:27:38;;;;;;;9.30;2.80;;;;;;;10.58;100.00;100258.59;4984182;28;20378;-82
2023/03/23 07:30:05;;;;;;;9.93;2.67;;;;;;;10.50;100.00;100267.13;4984949;28;20026;-80
2023/03/23 07:32:30;;;;;;;10.40;2.95;;;;;;;10.44;100.00;100267.63;4979660;28;20066;-82
2023/03/23 07:34:57;;;;;;;7.05;2.60;;;;;;;10.42;100.00;100277.44;4976834;28;20053;-80
2023/03/23 07:37:22;;;;;;;6.65;2.00;;;;;;;10.22;100.00;100259.84;4974862;28;20048;-79
2023/03/23 07:39:48;;;;;;;4.32;1.38;;;;;;;10.07;100.00;100237.41;4978635;28;20109;-80
2023/03/23 07:42:14;;;;;;;5.53;1.40;;;;;;;9.95;100.00;100232.16;4968560;28;20030;-80
2023/03/23 07:44:39;;;;;;;7.28;1.80;;;;;;;9.97;100.00;100239.94;4969576;28;20113;-80
2023/03/23 07:47:04;;;;;;;3.80;1.40;;;;;;;9.93;100.00;100244.59;4969734;28;20137;-79
2023/03/23 07:49:30;;;;;;;4.72;1.38;;;;;;;9.93;100.00;100255.09;4968980;28;20056;-78
2023/03/23 07:51:56;;;;;;;4.80;1.55;;;;;;;9.92;100.00;100256.06;4968411;28;20033;-78
2023/03/23 07:54:21;;;;;;;6.68;1.73;;;;;;;9.93;100.00;100252.47;4969707;28;20122;-78
2023/03/23 07:56:47;;;;;;;5.50;1.80;;;;;;;9.93;100.00;100254.28;5000736;28;20527;-78
2023/03/23 07:59:12;;;;;;;4.25;1.73;;;;;;;9.93;100.00;100270.88;4970048;28;20031;-78
2023/03/23 08:01:39;;;;;;;5.00;1.80;;;;;;;9.89;100.00;100279.13;4970492;28;20034;-79
2023/03/23 08:04:05;;;;;;;3.95;1.40;;;;;;;9.88;100.00;100274.84;4987424;28;20026;-80
2023/03/23 08:06:34;;;;;;;4.60;1.50;;;;;;;9.84;100.00;100276.03;4988260;28;20380;-80
2023/03/23 08:08:59;;;;;;;4.78;1.50;;;;;;;9.82;100.00;100286.69;4992410;28;20499;-81
2023/03/23 08:11:26;;;;;;;5.53;1.50;;;;;;;9.77;100.00;100301.97;4992124;28;20030;-80
2023/03/23 08:13:53;;;;;;;5.63;1.65;;;;;;;9.71;100.00;100295.41;5008436;28;20022;-78
2023/03/23 08:16:25;;;;;;;3.65;1.20;;;;;;;9.69;100.00;100299.13;4982788;28;20057;-80
2023/03/23 08:18:54;;;;;;;4.65;1.38;;;;;;;9.73;100.00;100296.13;4973987;28;20472;-81
2023/03/23 08:21:20;;;;;;;3.97;1.40;;;;;;;9.76;100.00;100295.03;4973766;28;20019;-81
2023/03/23 08:23:46;;;;;;;3.72;1.35;;;;;;;9.75;100.00;100298.63;4974018;28;20023;-82
2023/03/23 08:26:11;;;;;;;4.53;1.33;;;;;;;9.73;100.00;100297.91;4973303;28;20089;-82
2023/03/23 08:28:37;;;;;;;5.20;1.30;;;;;;;9.69;100.00;100297.34;5005129;28;20037;-82
2023/03/23 08:31:11;;;;;;;2.22;1.10;;;;;;;9.67;100.00;100298.41;5004293;28;20066;-82
2023/03/23 08:33:37;;;;;;;4.97;1.50;;;;;;;9.64;100.00;100296.03;4999615;28;20027;-82
2023/03/23 08:36:04;;;;;;;3.65;1.10;;;;;;;9.64;100.00;100298.66;4972276;28;20073;-82
2023/03/23 08:38:30;;;;;;;5.80;1.40;;;;;;;9.65;100.00;100287.19;4972430;28;20496;-82
2023/03/23 08:41:01;;;;;;;3.03;0.95;;;;;;;9.67;100.00;100290.53;4957089;28;20015;-82
2023/03/23 08:43:27;;;;;;;4.20;1.42;;;;;;;9.71;100.00;100281.44;4953535;28;20100;-82
2023/03/23 08:45:53;;;;;;;6.82;1.50;;;;;;;9.77;100.00;100290.63;4971405;28;20546;-81
2023/03/23 08:48:19;;;;;;;5.18;1.30;;;;;;;9.83;100.00;100301.47;4971933;28;20074;-82
2023/03/23 08:50:45;;;;;;;5.57;1.38;;;;;;;9.84;100.00;100302.31;4964462;28;20035;-82
2023/03/23 08:53:11;;;;;;;3.15;1.10;;;;;;;9.83;100.00;100300.66;4968216;28;20026;-82
2023/03/23 08:55:37;;;;;;;4.93;1.67;;;;;;;9.83;100.00;100301.47;4965395;28;20018;-82
2023/03/23 08:58:03;;;;;;;4.85;1.42;;;;;;;9.87;100.00;100296.81;4969205;28;20027;-82
2023/03/23 09:00:29;;;;;;;3.65;1.27;;;;;;;9.90;100.00;100317.59;4970424;28;20101;-82
2023/03/23 09:02:56;;;;;;;3.47;1.40;;;;;;;9.88;100.00;100325.59;5003015;28;20027;-81
2023/03/23 09:05:24;;;;;;;5.47;1.42;;;;;;;9.84;100.00;100318.91;4971988;28;20065;-82
2023/03/23 09:07:51;;;;;;;3.80;1.50;;;;;;;9.87;100.00;100302.91;4982266;28;20030;-82
2023/03/23 09:10:18;;;;;;;5.50;1.70;;;;;;;10.01;100.00;100294.78;4973433;28;20113;-82
2023/03/23 09:12:45;;;;;;;6.57;1.70;;;;;;;10.16;100.00;100295.31;4971208;28;20054;-82
2023/03/23 09:15:14;;;;;;;4.65;1.80;;;;;;;10.30;100.00;100304.72;4973520;28;20377;-82
2023/03/23 09:17:43;;;;;;;5.43;1.75;;;;;;;10.38;100.00;100318.09;4995745;28;20030;-83
2023/03/23 09:20:11;;;;;;;5.35;1.52;;;;;;;10.43;100.00;100309.84;4983138;28;20097;-81
2023/03/23 09:22:39;;;;;;;4.18;1.58;;;;;;;10.38;100.00;100323.34;4980235;28;20018;-83
2023/03/23 09:25:06;;;;;;;5.78;1.77;;;;;;;10.27;100.00;100308.44;4972567;28;20031;-83
2023/03/23 09:27:32;;;;;;;5.25;1.70;;;;;;;10.30;100.00;100302.09;4972003;28;20483;-82
2023/03/23 09:29:58;;;;;;;4.43;1.45;;;;;;;10.32;100.00;100302.81;4980069;28;20550;-82
2023/03/23 09:32:24;;;;;;;4.60;1.45;;;;;;;10.34;100.00;100303.53;4974482;28;20034;-82
2023/03/23 09:34:49;;;;;;;6.05;1.77;;;;;;;10.41;100.00;100306.50;4970958;28;20535;-82
2023/03/23 09:37:16;;;;;;;5.25;1.60;;;;;;;10.59;100.00;100315.50;4972080;28;20026;-81
2023/03/23 09:39:41;;;;;;;5.18;1.65;;;;;;;10.87;100.00;100319.31;5001952;28;20069;-82
2023/03/23 09:42:31;;;;;;;6.03;1.90;;;;;;;11.06;100.00;100319.44;4964219;28;20037;-82
2023/03/23 09:45:24;;;;;;;5.25;1.55;;;;;;;11.32;100.00;100319.88;4960634;28;20125;-80
2023/03/23 09:48:00;;;;;;;8.32;1.65;;;;;;;11.66;100.00;100322.25;4972778;28;20023;-83
2023/03/23 09:50:33;;;;;;;6.50;1.60;;;;;;;11.93;100.00;100323.31;4970855;28;20031;-82
2023/03/23 09:53:38;;;;;;;3.67;1.27;;;;;;;12.60;100.00;100320.91;4962498;28;20594;-81
2023/03/23 09:56:12;;;;;;;6.05;1.45;;;;;;;14.23;91.82;100313.41;4971675;28;20030;-83
2023/03/23 09:59:16;;;;;;;5.18;1.50;;;;;;;15.84;87.30;100314.75;4979723;28;20062;-82
2023/03/23 10:01:47;;;;;;;5.18;1.45;;;;;;;16.92;76.15;100306.63;4974696;28;20534;-83
2023/03/23 10:04:31;;;;;;;3.00;1.38;;;;;;;17.46;73.10;100308.69;4970594;28;20372;-82
2023/03/23 10:07:11;;;;;;;7.32;1.40;;;;;;;18.54;68.41;100312.31;5004067;28;20014;-82
2023/03/23 10:09:37;;;;;;;4.55;1.50;;;;;;;19.05;63.58;100307.22;4971205;28;20813;-82
2023/03/23 10:12:27;;;;;;;3.88;1.35;;;;;;;19.98;67.39;100312.84;5002585;28;20047;-83
2023/03/23 10:15:02;;;;;;;4.00;1.48;;;;;;;20.13;59.93;100306.66;4962019;28;20090;-83
2023/03/23 10:17:33;;;;;;;5.53;1.60;;;;;;;20.88;55.66;100298.16;4960814;28;20471;-83
2023/03/23 10:20:07;;;;;;;5.13;1.50;;;;;;;20.90;58.23;100313.00;5001757;28;20030;-83
2023/03/23 10:22:39;;;;;;;4.28;1.60;;;;;;;20.38;56.44;100315.97;4969952;28;20247;-83
2023/03/23 10:25:26;;;;;;;3.97;1.63;;;;;;;20.92;61.45;100304.78;4970166;28;20019;-83
2023/03/23 10:28:04;;;;;;;4.15;1.58;;;;;;;20.27;56.58;100321.81;4970582;28;20031;-83
2023/03/23 10:30:41;;;;;;;5.93;1.95;;;;;;;19.00;59.13;100329.13;4959323;28;20022;-83
2023/03/23 10:33:35;;;;;;;6.10;1.95;;;;;;;18.75;62.59;100323.16;4977960;28;20030;-83
2023/03/23 10:36:19;;;;;;;5.43;1.80;;;;;;;17.69;66.08;100330.94;4970408;28;20029;-80
2023/03/23 10:39:12;;;;;;;6.07;2.15;;;;;;;16.97;68.59;100334.53;4969655;28;20488;-83
2023/03/23 10:41:38;;;;;;;3.80;1.80;;;;;;;16.13;70.14;100324.97;4968652;28;20050;-82
2023/03/23 10:44:15;;;;;;;4.70;1.70;;;;;;;15.81;71.85;100338.94;4972129;28;20554;-84
2023/03/23 10:46:53;;;;;;;4.15;2.00;;;;;;;15.42;72.94;100334.06;4968675;28;20467;-84
2023/03/23 10:49:24;;;;;;;5.47;1.60;;;;;;;15.44;75.52;100328.63;4964364;28;20031;-83
2023/03/23 10:52:04;;;;;;;5.90;1.90;;;;;;;15.35;74.74;100325.94;4970535;28;20026;-83
2023/03/23 10:54:39;;;;;;;6.35;2.00;;;;;;;15.31;75.31;100329.06;4969556;28;20051;-84
2023/03/23 10:57:28;;;;;;;4.40;1.70;;;;;;;15.40;76.63;100328.09;4974097;28;20081;-84
2023/03/23 10:59:59;;;;;;;4.40;1.85;;;;;;;15.23;76.76;100321.88;4957387;28;20086;-83
2023/03/23 11:02:25;;;;;;;7.10;2.15;;;;;;;15.00;77.07;100321.56;4975107;28;20547;-83
2023/03/23 11:04:58;;;;;;;5.47;1.90;;;;;;;14.90;75.73;100326.13;4973752;28;20722;-83
2023/03/23 11:07:28;;;;;;;4.88;1.98;;;;;;;14.93;77.44;100317.88;5002127;28;20043;-82
2023/03/23 11:09:57;;;;;;;9.23;2.30;;;;;;;15.00;77.75;100321.56;4986289;28;20049;-84
2023/03/23 11:12:23;;;;;;;6.38;1.90;;;;;;;15.11;77.09;100316.97;4971498;28;20031;-83
2023/03/23 11:14:49;;;;;;;6.75;1.92;;;;;;;15.14;75.71;100311.38;4970292;28;20097;-84
2023/03/23 11:17:26;;;;;;;6.32;1.90;;;;;;;14.99;77.26;100317.25;4971167;28;20082;-83
2023/03/23 11:19:55;;;;;;;6.88;2.28;;;;;;;14.97;75.18;100315.75;4990497;28;20511;-83
2023/03/23 11:22:28;;;;;;;8.43;2.20;;;;;;;15.06;74.63;100314.81;4972182;28;20031;-84
2023/03/23 11:24:58;;;;;;;8.10;2.20;;;;;;;15.14;75.92;100332.56;4970020;28;20562;-82
2023/03/23 11:27:27;;;;;;;5.35;1.50;;;;;;;15.33;73.51;100340.34;4973456;28;20538;-83
2023/03/23 11:30:00;;;;;;;5.63;1.52;;;;;;;15.18;71.90;100334.75;4975006;28;20113;-84
2023/03/23 11:32:28;;;;;;;3.40;1.20;;;;;;;15.14;71.90;100333.41;4973195;28;20050;-84